GNTO2: Elm Fork Red River HWY 6 nr Granite 5S

Data processed at Wed May 22 2019 23:50


All information presented herein is the property of the government of the United States of America and may be revised or deleted at any time without prior notice.
Dissemination of this information without the expressed written consent of the Public Affairs Office, Tulsa District U.S. Army Corps of Engineers is strictly prohibited.
These data are gathered electronically and, as presented, have not undergone any form of quality control. These data are not guaranteed to be valid or correct.
Go to home page.
Go to station list.
Go to home page.

Upstream stations:

Downstream station:
Previous Day
Next Day
Current Day
    
SHEF ID:       GNTO2     Elm Fk Red Rvr HWY 6 nr Granite
STATION TYPE:  
Regulating: Stage =    14.00, Flow =     3000

               PRECIP     STAGE  RIV-FLOW   VOLTAGE  BAT-LOAD
                   in        ft       cfs      volt      volt
              Ccp-Rev   Ccp-Rev   Ccp-Rev   Ccp-Rev   Ccp-Rev
(US/Central)
05/22 00:00      0.00     11.34      1971     12.81     12.73
05/22 01:00      0.00     11.39      1990     12.81     12.73
05/22 02:00      0.00     11.43      2005     12.81     12.73
05/22 03:00      0.00     11.44      2009     12.81     12.65
05/22 04:00      0.00     11.45      2012     12.81     12.65
05/22 05:00      0.00     11.44      2009     12.73     12.65
05/22 06:00      0.00     11.40      1994     12.73     12.65
05/22 07:00      0.00     11.33      1967     12.73     12.65
05/22 08:00      0.00     11.26      1941     12.89     12.73
05/22 09:00      0.00     11.15      1900     13.44     13.21
05/22 10:00      0.00     11.01      1847     14.00     13.29
05/22 11:00      0.00     10.87      1795     13.44     13.53
05/22 12:00      0.00     10.72      1738     13.37     13.68
05/22 13:00      0.00     10.54      1671     13.68     13.05
05/22 14:00      0.00     10.37      1607     13.29     13.44
05/22 15:00      0.00     10.20      1543     13.44     13.21
05/22 16:00      0.00     10.06      1491     14.08     12.97
05/22 17:00      0.00      9.90      1430     13.37     13.37
05/22 18:00      0.00      9.78      1385     13.68     12.89
05/22 19:00      0.00      9.66      1340     13.44     12.81
05/22 20:00      0.00      9.55      1299     12.89     12.81
05/22 21:00      0.00      9.46      1265     12.89     12.81
05/22 22:00      0.04      9.34      1220     12.89     12.73
05/22 23:00      0.48      9.33      1217     12.81     12.73